createdAt,value
2019-04-16T00:00:44.706Z,9.30
2019-04-16T00:02:06.077Z,9.58
2019-04-16T00:02:57.331Z,9.03
2019-04-16T00:03:53.680Z,9.00
2019-04-16T00:05:05.159Z,9.98
2019-04-16T00:06:00.496Z,9.23
2019-04-16T00:07:16.027Z,8.43
2019-04-16T00:08:27.473Z,8.80
2019-04-16T00:09:10.607Z,8.40
2019-04-16T00:10:07.845Z,8.55
2019-04-16T00:11:23.132Z,7.97
2019-04-16T00:12:38.238Z,8.38
2019-04-16T00:13:48.033Z,8.25
2019-04-16T00:14:42.992Z,9.23
2019-04-16T00:15:32.968Z,8.70
2019-04-16T00:16:22.745Z,9.35
2019-04-16T00:17:13.162Z,9.30
2019-04-16T00:18:02.013Z,9.50
2019-04-16T00:18:57.815Z,8.80
2019-04-16T00:19:41.917Z,9.00
2019-04-16T00:20:36.918Z,8.70
2019-04-16T00:21:33.507Z,9.73
2019-04-16T00:22:33.931Z,8.85
2019-04-16T00:23:33.254Z,9.40
2019-04-16T00:24:45.232Z,9.38
2019-04-16T00:25:34.867Z,8.50
2019-04-16T00:26:26.797Z,8.88
2019-04-16T00:27:15.544Z,9.05
2019-04-16T00:28:05.328Z,8.95
2019-04-16T00:28:55.999Z,8.08
2019-04-16T00:29:46.318Z,8.58
2019-04-16T00:30:36.539Z,8.28
2019-04-16T00:31:26.816Z,9.00
2019-04-16T00:32:28.526Z,8.83
2019-04-16T00:33:18.822Z,8.60
2019-04-16T00:34:13.363Z,9.05
2019-04-16T00:34:59.733Z,9.28
2019-04-16T00:35:49.735Z,8.93
2019-04-16T00:36:39.682Z,8.48
2019-04-16T00:37:31.084Z,8.78
2019-04-16T00:38:22.773Z,8.30
2019-04-16T00:39:10.871Z,8.65
2019-04-16T00:40:00.548Z,8.43
2019-04-16T00:40:50.397Z,9.13
2019-04-16T00:41:40.122Z,8.53
2019-04-16T00:42:30.802Z,9.63
2019-04-16T00:43:21.654Z,8.70
2019-04-16T00:44:12.135Z,7.87
2019-04-16T00:45:03.396Z,8.83
2019-04-16T00:45:53.207Z,7.65
2019-04-16T00:46:43.362Z,8.48
2019-04-16T00:47:33.177Z,8.68
2019-04-16T00:48:23.622Z,8.63
2019-04-16T00:49:13.829Z,8.98
2019-04-16T00:50:04.220Z,8.95
2019-04-16T00:50:54.486Z,9.10
2019-04-16T00:51:44.736Z,8.73
2019-04-16T00:52:37.019Z,8.68
2019-04-16T00:53:25.232Z,8.43
2019-04-16T00:54:15.282Z,9.65
2019-04-16T00:55:07.051Z,8.13
2019-04-16T00:55:57.353Z,8.70
2019-04-16T00:56:47.550Z,8.20
2019-04-16T00:57:37.132Z,8.95
2019-04-16T00:58:26.850Z,9.98
2019-04-16T00:59:16.692Z,9.75
2019-04-16T01:00:07.261Z,9.58
2019-04-16T01:00:57.438Z,9.85
2019-04-16T01:01:47.313Z,9.48
2019-04-16T01:02:37.646Z,9.00
2019-04-16T01:03:27.448Z,8.75
2019-04-16T01:04:17.359Z,8.78
2019-04-16T01:05:07.504Z,9.05
2019-04-16T01:05:58.642Z,8.40
2019-04-16T01:06:48.601Z,8.25
2019-04-16T01:07:39.062Z,9.18
2019-04-16T01:08:29.933Z,8.93
2019-04-16T01:09:19.582Z,8.40
2019-04-16T01:10:10.295Z,8.30
2019-04-16T01:11:00.576Z,7.97
2019-04-16T01:11:50.931Z,9.60
2019-04-16T01:12:41.253Z,9.25
2019-04-16T01:13:30.937Z,8.30
2019-04-16T01:14:21.191Z,7.00
2019-04-16T01:15:11.073Z,9.33
2019-04-16T01:16:03.476Z,8.90
2019-04-16T01:16:50.989Z,8.43
2019-04-16T01:17:41.833Z,9.10
2019-04-16T01:18:32.275Z,8.23
2019-04-16T01:19:22.657Z,8.13
2019-04-16T01:20:13.149Z,8.58
2019-04-16T01:21:02.448Z,9.20
2019-04-16T01:21:52.551Z,8.63
2019-04-16T01:22:46.570Z,9.08
2019-04-16T01:23:33.431Z,8.28
2019-04-16T01:24:23.151Z,8.88
2019-04-16T01:25:13.083Z,7.78
2019-04-16T01:26:03.511Z,8.38
2019-04-16T01:26:55.493Z,9.35
2019-04-16T01:27:47.496Z,9.15
2019-04-16T01:28:41.731Z,9.83
2019-04-16T01:29:33.867Z,9.48
2019-04-16T01:30:36.279Z,8.60
2019-04-16T01:31:36.263Z,8.85
2019-04-16T01:32:48.043Z,7.80
2019-04-16T01:33:57.538Z,8.53
2019-04-16T01:35:09.812Z,8.33
2019-04-16T01:36:09.041Z,8.60
2019-04-16T01:37:27.137Z,8.80
2019-04-16T01:38:37.057Z,8.63
2019-04-16T01:39:28.478Z,9.65
2019-04-16T01:40:21.953Z,8.23
2019-04-16T01:41:15.317Z,8.03
2019-04-16T01:42:05.113Z,9.30
2019-04-16T01:42:55.295Z,9.70
2019-04-16T01:43:44.712Z,9.63
2019-04-16T01:44:35.399Z,10.43
2019-04-16T01:45:29.618Z,9.15
2019-04-16T01:46:15.645Z,8.33
2019-04-16T01:47:05.373Z,8.55
2019-04-16T01:47:55.402Z,8.48
2019-04-16T01:48:44.948Z,9.33
2019-04-16T01:49:36.325Z,8.68
2019-04-16T01:50:26.272Z,7.80
2019-04-16T01:51:16.360Z,9.08
2019-04-16T01:52:05.976Z,8.40
2019-04-16T01:52:55.708Z,7.97
2019-04-16T01:53:45.891Z,8.55
2019-04-16T01:54:35.537Z,8.13
2019-04-16T01:55:26.480Z,9.05
2019-04-16T01:56:16.157Z,7.72
2019-04-16T01:57:06.158Z,8.20
2019-04-16T01:57:55.896Z,8.98
2019-04-16T01:58:45.943Z,8.60
2019-04-16T01:59:36.473Z,9.03
2019-04-16T02:00:25.787Z,8.68
2019-04-16T02:01:15.950Z,9.68
2019-04-16T02:02:06.749Z,9.28
2019-04-16T02:02:56.568Z,8.60
2019-04-16T02:03:48.881Z,9.18
2019-04-16T02:04:36.680Z,8.30
2019-04-16T02:05:26.634Z,8.70
2019-04-16T02:06:16.763Z,8.60
2019-04-16T02:07:07.005Z,7.22
2019-04-16T02:07:59.286Z,8.88
2019-04-16T02:08:47.224Z,7.97
2019-04-16T02:09:36.824Z,8.40
2019-04-16T02:10:26.419Z,8.28
2019-04-16T02:11:16.139Z,8.70
2019-04-16T02:12:05.760Z,9.33
2019-04-16T02:12:55.449Z,8.95
2019-04-16T02:13:46.941Z,8.65
2019-04-16T02:14:35.885Z,8.38
2019-04-16T02:15:25.963Z,8.55
2019-04-16T02:16:15.689Z,8.88
2019-04-16T02:17:06.637Z,8.90
2019-04-16T02:17:58.801Z,8.63
2019-04-16T02:18:46.208Z,9.58
2019-04-16T02:19:36.333Z,7.87
2019-04-16T02:20:26.208Z,7.85
2019-04-16T02:21:15.582Z,7.95
2019-04-16T02:22:06.163Z,8.15
2019-04-16T02:22:55.977Z,8.40
2019-04-16T02:23:48.049Z,7.95
2019-04-16T02:24:35.759Z,8.33
2019-04-16T02:25:25.451Z,7.55
2019-04-16T02:26:16.397Z,7.35
2019-04-16T02:27:06.977Z,9.18
2019-04-16T02:27:57.766Z,8.13
2019-04-16T02:28:47.987Z,9.18
2019-04-16T02:29:37.539Z,8.80
2019-04-16T02:30:27.334Z,9.53
2019-04-16T02:31:17.573Z,9.50
2019-04-16T02:32:07.128Z,8.40
2019-04-16T02:32:57.209Z,8.05
2019-04-16T02:33:46.856Z,7.25
2019-04-16T02:34:37.013Z,8.08
2019-04-16T02:35:26.849Z,8.35
2019-04-16T02:36:17.098Z,8.80
2019-04-16T02:37:07.028Z,9.15
2019-04-16T02:37:56.439Z,9.03
2019-04-16T02:38:53.477Z,8.28
2019-04-16T02:39:49.802Z,8.20
2019-04-16T02:40:27.612Z,8.35
2019-04-16T02:41:17.614Z,8.85
2019-04-16T02:42:07.267Z,8.65
2019-04-16T02:43:04.076Z,7.90
2019-04-16T02:43:48.698Z,8.38
2019-04-16T02:44:38.815Z,8.05
2019-04-16T02:45:29.167Z,8.40
2019-04-16T02:46:19.021Z,8.93
2019-04-16T02:47:09.007Z,8.40
2019-04-16T02:47:58.513Z,7.80
2019-04-16T02:48:51.516Z,9.38
2019-04-16T02:49:38.237Z,8.50
2019-04-16T02:50:43.841Z,8.23
2019-04-16T02:52:02.179Z,8.03
2019-04-16T02:53:07.876Z,7.55
2019-04-16T02:54:15.786Z,7.53
2019-04-16T02:55:25.117Z,7.72
2019-04-16T02:56:30.285Z,8.70
2019-04-16T02:57:42.404Z,9.18
2019-04-16T02:58:38.144Z,8.85
2019-04-16T02:59:30.883Z,8.58
2019-04-16T03:00:37.730Z,7.60
2019-04-16T03:01:53.294Z,7.25
2019-04-16T03:02:54.479Z,8.85
2019-04-16T03:03:47.907Z,8.43
2019-04-16T03:04:45.045Z,7.95
2019-04-16T03:05:37.907Z,7.80
2019-04-16T03:06:31.693Z,9.00
2019-04-16T03:07:18.013Z,9.28
2019-04-16T03:08:08.020Z,9.05
2019-04-16T03:08:57.861Z,9.20
2019-04-16T03:10:00.488Z,7.90
2019-04-16T03:10:41.781Z,7.60
2019-04-16T03:11:29.301Z,7.37
2019-04-16T03:12:20.976Z,8.05
2019-04-16T03:13:09.520Z,7.92
2019-04-16T03:13:59.478Z,7.17
2019-04-16T03:14:49.005Z,7.85
2019-04-16T03:15:56.674Z,7.95
2019-04-16T03:17:07.017Z,8.70
2019-04-16T03:17:55.685Z,9.98
2019-04-16T03:18:52.269Z,10.05
2019-04-16T03:19:43.454Z,9.68
2019-04-16T03:20:33.234Z,15.90
2019-04-16T03:21:27.518Z,14.63
2019-04-16T03:22:14.764Z,17.52
2019-04-16T03:23:06.093Z,18.00
2019-04-16T03:23:54.529Z,17.98
2019-04-16T03:24:44.581Z,18.05
2019-04-16T03:25:34.651Z,17.32
2019-04-16T03:26:24.370Z,13.58
2019-04-16T03:27:15.123Z,13.05
2019-04-16T03:28:05.881Z,12.75
2019-04-16T03:28:59.231Z,12.55
2019-04-16T03:29:46.602Z,11.60
2019-04-16T03:30:42.085Z,11.45
2019-04-16T03:31:26.628Z,10.23
2019-04-16T03:32:16.676Z,12.10
2019-04-16T03:33:12.294Z,11.80
2019-04-16T03:33:56.690Z,11.28
2019-04-16T03:34:47.338Z,12.45
2019-04-16T03:35:37.582Z,10.23
2019-04-16T03:36:29.590Z,10.70
2019-04-16T03:37:17.389Z,9.90
2019-04-16T03:38:07.786Z,9.10
2019-04-16T03:38:58.453Z,10.35
2019-04-16T03:39:48.279Z,10.50
2019-04-16T03:40:38.944Z,8.60
2019-04-16T03:41:28.532Z,9.58
2019-04-16T03:42:18.441Z,9.30
2019-04-16T03:43:08.786Z,13.28
2019-04-16T03:44:03.638Z,11.30
2019-04-16T03:44:48.712Z,11.93
2019-04-16T03:45:40.418Z,16.62
2019-04-16T03:46:28.806Z,14.05
2019-04-16T03:47:19.875Z,11.80
2019-04-16T03:48:08.626Z,13.90
2019-04-16T03:48:58.823Z,13.25
2019-04-16T03:49:48.925Z,15.32
2019-04-16T03:50:38.761Z,12.95
2019-04-16T03:51:28.526Z,12.45
2019-04-16T03:52:18.367Z,11.60
2019-04-16T03:53:08.141Z,13.10
2019-04-16T03:53:57.747Z,12.93
2019-04-16T03:54:47.680Z,13.32
2019-04-16T03:55:39.169Z,12.53
2019-04-16T03:56:30.660Z,12.13
2019-04-16T03:57:18.800Z,12.80
2019-04-16T03:58:08.860Z,13.18
2019-04-16T03:58:59.270Z,12.68
2019-04-16T03:59:49.167Z,11.85
2019-04-16T04:00:43.882Z,21.97
2019-04-16T04:01:29.230Z,18.15
2019-04-16T04:02:22.900Z,15.88
2019-04-16T04:03:09.300Z,15.05
2019-04-16T04:03:58.939Z,16.00
2019-04-16T04:04:48.946Z,15.05
2019-04-16T04:05:38.654Z,14.47
2019-04-16T04:06:28.494Z,14.40
2019-04-16T04:07:18.152Z,13.78
2019-04-16T04:08:08.162Z,17.48
2019-04-16T04:08:58.089Z,15.90
2019-04-16T04:09:47.889Z,14.75
2019-04-16T04:10:38.765Z,12.58
2019-04-16T04:11:28.637Z,11.83
2019-04-16T04:12:18.760Z,12.00
2019-04-16T04:13:08.528Z,11.55
2019-04-16T04:13:58.400Z,11.85
2019-04-16T04:14:48.133Z,10.68
2019-04-16T04:15:38.200Z,10.48
2019-04-16T04:16:30.543Z,11.18
2019-04-16T04:17:19.350Z,11.10
2019-04-16T04:18:11.696Z,10.60
2019-04-16T04:18:58.887Z,10.15
2019-04-16T04:19:48.665Z,12.23
2019-04-16T04:20:38.379Z,11.95
2019-04-16T04:21:29.121Z,11.33
2019-04-16T04:22:19.340Z,10.75
2019-04-16T04:23:08.902Z,10.82
2019-04-16T04:24:00.652Z,10.80
2019-04-16T04:24:48.529Z,10.48
2019-04-16T04:25:38.648Z,10.28
2019-04-16T04:26:29.059Z,11.53
2019-04-16T04:27:19.707Z,9.90
2019-04-16T04:28:09.627Z,11.68
2019-04-16T04:28:59.319Z,10.35
2019-04-16T04:29:48.916Z,10.00
2019-04-16T04:30:39.236Z,11.22
2019-04-16T04:31:32.049Z,10.98
2019-04-16T04:32:19.476Z,9.50
2019-04-16T04:33:10.330Z,9.08
2019-04-16T04:33:59.142Z,9.20
2019-04-16T04:34:49.597Z,10.08
2019-04-16T04:35:38.692Z,11.68
2019-04-16T04:36:29.054Z,10.85
2019-04-16T04:37:19.253Z,10.68
2019-04-16T04:38:09.693Z,10.43
2019-04-16T04:38:59.576Z,10.60
2019-04-16T04:39:49.669Z,9.13
2019-04-16T04:41:30.701Z,10.08
2019-04-16T04:42:20.246Z,9.80
2019-04-16T04:43:09.933Z,10.32
2019-04-16T04:43:10.079Z,10.10
2019-04-16T04:44:03.908Z,9.08
2019-04-16T04:44:50.216Z,10.53
2019-04-16T04:45:41.484Z,11.48
2019-04-16T04:46:30.995Z,10.25
2019-04-16T04:47:20.679Z,10.32
2019-04-16T04:48:11.978Z,10.28
2019-04-16T04:49:00.559Z,9.05
2019-04-16T04:49:51.061Z,8.45
2019-04-16T04:50:40.702Z,8.65
2019-04-16T04:51:30.933Z,9.38
2019-04-16T04:52:21.148Z,10.10
2019-04-16T04:53:10.934Z,10.32
2019-04-16T04:54:01.014Z,9.20
2019-04-16T04:54:51.311Z,9.18
2019-04-16T04:55:42.194Z,10.03
2019-04-16T04:56:32.235Z,11.70
2019-04-16T04:57:22.633Z,11.28
2019-04-16T04:58:12.601Z,10.45
2019-04-16T04:59:05.196Z,9.60
2019-04-16T04:59:52.683Z,9.85
2019-04-16T05:00:42.484Z,8.95
2019-04-16T05:01:33.565Z,9.15
2019-04-16T05:02:23.385Z,9.68
2019-04-16T05:03:16.950Z,9.95
2019-04-16T05:04:23.173Z,9.70
2019-04-16T05:05:24.737Z,9.90
2019-04-16T05:06:14.373Z,9.80
2019-04-16T05:07:05.725Z,11.10
2019-04-16T05:07:59.636Z,9.43
2019-04-16T05:08:45.841Z,11.33
2019-04-16T05:09:36.765Z,9.80
2019-04-16T05:10:25.417Z,10.72
2019-04-16T05:11:16.587Z,9.75
2019-04-16T05:12:07.894Z,9.88
2019-04-16T05:12:55.113Z,10.82
2019-04-16T05:13:44.953Z,12.07
2019-04-16T05:14:34.615Z,10.65
2019-04-16T05:15:26.410Z,11.20
2019-04-16T05:16:15.052Z,11.38
2019-04-16T05:17:06.655Z,11.43
2019-04-16T05:17:55.483Z,9.65
2019-04-16T05:18:45.757Z,9.85
2019-04-16T05:19:35.395Z,9.68
2019-04-16T05:20:25.642Z,8.75
2019-04-16T05:21:18.712Z,8.60
2019-04-16T05:22:06.273Z,9.50
2019-04-16T05:22:58.082Z,9.88
2019-04-16T05:23:46.733Z,9.28
2019-04-16T05:24:37.669Z,9.80
2019-04-16T05:25:26.957Z,9.23
2019-04-16T05:26:17.996Z,10.10
2019-04-16T05:27:09.272Z,10.70
2019-04-16T05:27:59.574Z,10.65
2019-04-16T05:28:49.582Z,10.13
2019-04-16T05:29:39.894Z,10.30
2019-04-16T05:30:29.692Z,10.75
2019-04-16T05:31:24.186Z,11.03
2019-04-16T05:32:10.853Z,10.70
2019-04-16T05:33:05.618Z,9.83
2019-04-16T05:33:52.495Z,10.75
2019-04-16T05:34:42.223Z,10.60
2019-04-16T05:35:32.271Z,10.28
2019-04-16T05:36:22.974Z,11.15
2019-04-16T05:37:13.348Z,10.18
2019-04-16T05:38:02.997Z,9.43
2019-04-16T05:38:55.472Z,9.58
2019-04-16T05:39:42.061Z,10.30
2019-04-16T05:40:35.106Z,10.70
2019-04-16T05:41:22.823Z,9.85
2019-04-16T05:42:13.256Z,11.20
2019-04-16T05:43:02.930Z,9.28
2019-04-16T05:43:53.006Z,9.73
2019-04-16T05:44:43.277Z,10.32
2019-04-16T05:45:34.536Z,11.03
2019-04-16T05:46:24.937Z,11.48
2019-04-16T05:47:18.069Z,10.15
2019-04-16T05:48:05.149Z,10.43
2019-04-16T05:48:55.836Z,10.68
2019-04-16T05:49:45.504Z,9.88
2019-04-16T05:50:35.437Z,11.18
2019-04-16T05:51:28.496Z,11.45
2019-04-16T05:52:15.924Z,11.08
2019-04-16T05:53:08.265Z,11.12
2019-04-16T05:53:56.874Z,11.45
2019-04-16T05:55:01.196Z,9.98
2019-04-16T05:56:02.195Z,10.30
2019-04-16T05:56:55.524Z,11.28
2019-04-16T05:57:45.221Z,9.38
2019-04-16T05:58:35.237Z,11.10
2019-04-16T05:59:25.328Z,11.73
2019-04-16T06:00:21.836Z,10.30
2019-04-16T06:01:23.263Z,11.05
2019-04-16T06:02:18.738Z,10.20
2019-04-16T06:03:07.585Z,11.35
2019-04-16T06:03:57.163Z,10.88
2019-04-16T06:04:47.669Z,11.40
2019-04-16T06:05:37.907Z,10.70
2019-04-16T06:06:28.778Z,11.83
2019-04-16T06:07:17.879Z,10.38
2019-04-16T06:08:10.285Z,11.45
2019-04-16T06:08:59.989Z,10.20
2019-04-16T06:09:50.513Z,12.28
2019-04-16T06:10:41.314Z,12.03
2019-04-16T06:11:35.791Z,11.50
2019-04-16T06:12:21.973Z,11.05
2019-04-16T06:13:28.986Z,11.68
2019-04-16T06:14:26.152Z,11.28
2019-04-16T06:15:26.228Z,11.38
2019-04-16T06:16:44.182Z,9.80
2019-04-16T06:17:54.355Z,9.60
2019-04-16T06:19:04.639Z,10.32
2019-04-16T06:20:20.729Z,10.65
2019-04-16T06:21:26.813Z,10.98
2019-04-16T06:22:34.889Z,12.28
2019-04-16T06:23:42.872Z,10.78
2019-04-16T06:24:55.634Z,10.63
2019-04-16T06:26:14.688Z,10.63
2019-04-16T06:27:04.415Z,11.45
2019-04-16T06:28:13.561Z,10.20
2019-04-16T06:29:29.039Z,10.15
2019-04-16T06:30:50.878Z,9.93
2019-04-16T06:31:59.203Z,10.80
2019-04-16T06:33:10.694Z,10.20
2019-04-16T06:34:35.314Z,10.32
2019-04-16T06:35:44.045Z,10.30
2019-04-16T06:36:57.244Z,11.85
2019-04-16T06:37:54.402Z,11.43
2019-04-16T06:39:05.152Z,13.32
2019-04-16T06:40:08.766Z,11.83
2019-04-16T06:41:19.506Z,11.93
2019-04-16T06:42:30.591Z,11.65
2019-04-16T06:43:26.153Z,11.35
2019-04-16T06:44:19.675Z,11.63
2019-04-16T06:45:19.997Z,11.83
2019-04-16T06:46:40.535Z,11.22
2019-04-16T06:47:49.719Z,11.15
2019-04-16T06:48:51.939Z,11.90
2019-04-16T06:50:05.256Z,12.07
2019-04-16T06:51:17.675Z,11.65
2019-04-16T06:52:32.592Z,10.68
2019-04-16T06:53:31.284Z,11.68
2019-04-16T06:54:45.501Z,12.25
2019-04-16T06:55:38.732Z,11.57
2019-04-16T06:56:52.417Z,11.20
2019-04-16T06:57:49.116Z,10.78
2019-04-16T06:58:58.262Z,11.05
2019-04-16T06:59:59.501Z,10.72
2019-04-16T07:01:07.157Z,10.43
2019-04-16T07:02:18.328Z,11.78
2019-04-16T07:03:32.559Z,11.53
2019-04-16T07:04:30.901Z,11.03
2019-04-16T07:05:38.316Z,11.43
2019-04-16T07:07:08.573Z,10.60
2019-04-16T07:08:02.304Z,10.40
2019-04-16T07:09:00.638Z,10.05
2019-04-16T07:10:16.201Z,10.20
2019-04-16T07:11:06.708Z,10.43
2019-04-16T07:12:04.949Z,10.70
2019-04-16T07:12:54.882Z,10.70
2019-04-16T07:13:45.951Z,10.90
2019-04-16T07:14:36.289Z,10.93
2019-04-16T07:15:28.778Z,11.55
2019-04-16T07:16:17.432Z,11.10
2019-04-16T07:17:08.651Z,11.70
2019-04-16T07:17:59.077Z,12.30
2019-04-16T07:18:48.562Z,12.03
2019-04-16T07:19:39.430Z,11.60
2019-04-16T07:20:28.603Z,12.30
2019-04-16T07:21:18.916Z,11.83
2019-04-16T07:22:09.054Z,11.93
2019-04-16T07:22:59.912Z,11.63
2019-04-16T07:23:50.191Z,12.15
2019-04-16T07:24:40.874Z,11.20
2019-04-16T07:25:32.173Z,11.80
2019-04-16T07:26:21.313Z,12.20
2019-04-16T07:27:12.142Z,12.68
2019-04-16T07:28:28.202Z,11.55
2019-04-16T07:29:32.545Z,12.37
2019-04-16T07:30:38.679Z,11.08
2019-04-16T07:31:33.568Z,11.15
2019-04-16T07:32:36.327Z,11.80
2019-04-16T07:33:45.735Z,11.78
2019-04-16T07:34:45.876Z,13.38
2019-04-16T07:35:55.803Z,12.13
2019-04-16T07:37:08.213Z,12.15
2019-04-16T07:38:13.479Z,12.03
2019-04-16T07:39:29.877Z,13.05
2019-04-16T07:40:45.172Z,10.95
2019-04-16T07:42:11.737Z,13.15
2019-04-16T07:43:31.009Z,11.78
2019-04-16T07:44:31.351Z,11.93
2019-04-16T07:45:32.289Z,13.22
2019-04-16T07:46:47.064Z,13.30
2019-04-16T07:48:00.551Z,11.55
2019-04-16T07:49:13.021Z,13.35
2019-04-16T07:50:13.328Z,12.95
2019-04-16T07:51:35.775Z,12.80
2019-04-16T07:52:42.081Z,11.33
2019-04-16T07:54:02.233Z,11.35
2019-04-16T07:55:12.445Z,12.98
2019-04-16T07:56:07.585Z,13.53
2019-04-16T07:56:58.267Z,12.58
2019-04-16T07:57:49.555Z,13.05
2019-04-16T07:58:39.808Z,13.72
2019-04-16T07:59:32.163Z,13.32
2019-04-16T08:00:20.151Z,13.28
2019-04-16T08:01:12.647Z,13.05
2019-04-16T08:02:00.139Z,13.65
2019-04-16T08:02:50.799Z,13.72
2019-04-16T08:03:40.938Z,13.93
2019-04-16T08:04:35.318Z,13.78
2019-04-16T08:05:21.921Z,13.85
2019-04-16T08:06:14.269Z,14.10
2019-04-16T08:07:01.443Z,13.88
2019-04-16T08:07:52.925Z,13.70
2019-04-16T08:08:41.503Z,13.95
2019-04-16T08:09:33.669Z,14.00
2019-04-16T08:10:22.173Z,14.70
2019-04-16T08:11:11.544Z,13.28
2019-04-16T08:12:01.171Z,14.05
2019-04-16T08:13:33.253Z,14.70
2019-04-16T08:14:19.219Z,13.72
2019-04-16T08:15:14.251Z,14.10
2019-04-16T08:15:59.703Z,14.70
2019-04-16T08:16:49.874Z,13.88
2019-04-16T08:17:40.428Z,12.58
2019-04-16T08:18:29.919Z,14.00
2019-04-16T08:19:39.285Z,13.85
2019-04-16T08:20:29.143Z,14.00
2019-04-16T08:21:22.287Z,14.68
2019-04-16T08:22:09.256Z,14.05
2019-04-16T08:23:01.005Z,14.23
2019-04-16T08:23:56.719Z,14.03
2019-04-16T08:24:57.619Z,14.83
2019-04-16T08:25:41.865Z,14.55
2019-04-16T08:26:31.767Z,14.35
2019-04-16T08:27:21.320Z,14.65
2019-04-16T08:28:11.646Z,13.68
2019-04-16T08:29:03.090Z,14.10
2019-04-16T08:29:53.291Z,15.53
2019-04-16T08:30:43.698Z,14.93
2019-04-16T08:31:35.955Z,15.10
2019-04-16T08:32:26.078Z,14.93
2019-04-16T08:33:15.209Z,14.18
2019-04-16T08:34:05.331Z,13.98
2019-04-16T08:34:56.071Z,13.93
2019-04-16T08:35:45.929Z,15.18
2019-04-16T08:36:36.804Z,12.40
2019-04-16T08:37:26.252Z,13.60
2019-04-16T08:38:16.296Z,13.95
2019-04-16T08:39:07.571Z,15.45
2019-04-16T08:39:56.379Z,14.50
2019-04-16T08:40:46.954Z,12.88
2019-04-16T08:41:36.710Z,12.60
2019-04-16T08:42:29.490Z,14.80
2019-04-16T08:43:16.559Z,14.35
2019-04-16T08:44:09.637Z,14.23
2019-04-16T08:44:57.407Z,15.68
2019-04-16T08:45:47.375Z,15.05
2019-04-16T08:46:40.140Z,15.65
2019-04-16T08:47:27.547Z,15.50
2019-04-16T08:48:18.910Z,13.83
2019-04-16T08:49:08.302Z,13.30
2019-04-16T08:49:58.639Z,14.63
2019-04-16T08:50:49.471Z,14.68
2019-04-16T08:51:38.605Z,15.05
2019-04-16T08:52:29.948Z,15.48
2019-04-16T08:53:19.426Z,14.00
2019-04-16T08:54:09.673Z,15.20
2019-04-16T08:55:00.473Z,14.70
2019-04-16T08:55:50.345Z,14.07
2019-04-16T08:56:43.230Z,14.80
2019-04-16T08:57:32.892Z,15.45
2019-04-16T08:58:22.339Z,15.25
2019-04-16T08:59:12.438Z,13.88
2019-04-16T09:00:02.662Z,15.53
2019-04-16T09:00:53.300Z,15.00
2019-04-16T09:01:44.090Z,14.30
2019-04-16T09:02:33.662Z,14.43
2019-04-16T09:03:23.274Z,14.15
2019-04-16T09:04:13.032Z,15.50
2019-04-16T09:05:05.941Z,15.50
2019-04-16T09:05:52.695Z,14.47
2019-04-16T09:06:46.591Z,14.63
2019-04-16T09:07:40.303Z,14.78
2019-04-16T09:08:46.754Z,15.15
2019-04-16T09:09:50.339Z,15.20
2019-04-16T09:10:40.009Z,14.80
2019-04-16T09:11:35.099Z,15.00
2019-04-16T09:12:21.006Z,14.47
2019-04-16T09:13:11.470Z,14.53
2019-04-16T09:14:02.821Z,14.70
2019-04-16T09:14:56.040Z,14.53
2019-04-16T09:15:43.654Z,14.93
2019-04-16T09:16:34.029Z,14.70
2019-04-16T09:17:47.785Z,15.23
2019-04-16T09:19:02.987Z,15.60
2019-04-16T09:20:05.651Z,15.03
2019-04-16T09:20:54.038Z,14.73
2019-04-16T09:21:44.801Z,14.43
2019-04-16T09:22:47.828Z,14.30
2019-04-16T09:23:26.595Z,15.80
2019-04-16T09:24:27.482Z,14.80
2019-04-16T09:25:45.939Z,15.40
2019-04-16T09:26:37.136Z,15.20
2019-04-16T09:27:34.266Z,15.68
2019-04-16T09:28:55.248Z,14.90
2019-04-16T09:30:03.892Z,15.00
2019-04-16T09:31:32.752Z,14.70
2019-04-16T09:32:48.209Z,14.33
2019-04-16T09:33:47.547Z,15.05
2019-04-16T09:35:08.869Z,15.75
2019-04-16T09:36:19.820Z,14.85
2019-04-16T09:37:47.638Z,15.93
2019-04-16T09:38:45.468Z,15.10
2019-04-16T09:39:49.970Z,16.15
2019-04-16T09:40:58.380Z,15.23
2019-04-16T09:41:49.531Z,14.60
2019-04-16T09:42:39.730Z,14.43
2019-04-16T09:43:30.451Z,15.55
2019-04-16T09:44:20.879Z,15.20
2019-04-16T09:45:10.794Z,15.13
2019-04-16T09:46:10.242Z,15.95
2019-04-16T09:46:52.211Z,15.55
2019-04-16T09:47:41.656Z,14.83
2019-04-16T09:48:34.768Z,15.50
2019-04-16T09:49:22.241Z,15.80
2019-04-16T09:50:13.419Z,15.13
2019-04-16T09:51:03.254Z,15.40
2019-04-16T09:51:53.919Z,15.20
2019-04-16T09:52:44.522Z,16.35
2019-04-16T09:53:37.556Z,15.95
2019-04-16T09:54:25.461Z,14.30
2019-04-16T09:55:19.141Z,15.75
2019-04-16T09:56:35.435Z,16.20
2019-04-16T09:57:25.270Z,15.93
2019-04-16T09:58:22.158Z,16.30
2019-04-16T09:59:36.332Z,15.93
2019-04-16T10:00:31.233Z,15.63
2019-04-16T10:01:21.876Z,16.23
2019-04-16T10:02:14.498Z,16.55
2019-04-16T10:03:18.169Z,16.50
2019-04-16T10:04:09.659Z,15.72
2019-04-16T10:05:00.691Z,15.48
2019-04-16T10:05:50.218Z,15.28
2019-04-16T10:06:40.479Z,15.95
2019-04-16T10:07:30.087Z,15.40
2019-04-16T10:08:20.178Z,16.35
2019-04-16T10:09:10.360Z,16.15
2019-04-16T10:10:00.650Z,16.07
2019-04-16T10:10:51.074Z,16.20
2019-04-16T10:11:41.519Z,15.08
2019-04-16T10:12:31.179Z,16.87
2019-04-16T10:13:31.158Z,16.07
2019-04-16T10:14:10.964Z,16.87
2019-04-16T10:15:01.117Z,16.57
2019-04-16T10:15:51.550Z,16.12
2019-04-16T10:16:41.805Z,15.68
2019-04-16T10:17:32.780Z,16.60
2019-04-16T10:18:22.423Z,16.70
2019-04-16T10:19:12.655Z,16.20
2019-04-16T10:20:01.983Z,15.65
2019-04-16T10:20:53.168Z,16.57
2019-04-16T10:21:43.319Z,16.42
2019-04-16T10:22:34.267Z,16.75
2019-04-16T10:23:55.694Z,17.57
2019-04-16T10:25:22.790Z,16.75
2019-04-16T10:26:13.350Z,16.82
2019-04-16T10:27:04.454Z,16.35
2019-04-16T10:28:15.096Z,15.98
2019-04-16T10:29:07.821Z,15.85
2019-04-16T10:29:57.781Z,16.32
2019-04-16T10:30:50.967Z,16.00
2019-04-16T10:31:41.876Z,15.72
2019-04-16T10:32:32.045Z,15.80
2019-04-16T10:33:21.883Z,15.40
2019-04-16T10:34:13.062Z,16.02
2019-04-16T10:35:03.512Z,16.93
2019-04-16T10:35:53.967Z,16.10
2019-04-16T10:36:43.874Z,16.90
2019-04-16T10:37:33.607Z,16.60
2019-04-16T10:38:37.747Z,17.33
2019-04-16T10:39:34.378Z,16.82
2019-04-16T10:40:30.467Z,16.07
2019-04-16T10:41:28.309Z,16.65
2019-04-16T10:42:48.276Z,17.30
2019-04-16T10:43:57.322Z,17.33
2019-04-16T10:45:05.375Z,16.10
2019-04-16T10:46:23.895Z,17.37
2019-04-16T10:47:37.148Z,16.87
2019-04-16T10:48:34.736Z,16.50
2019-04-16T10:49:48.377Z,16.97
2019-04-16T10:51:15.432Z,17.47
2019-04-16T10:52:22.305Z,17.10
2019-04-16T10:53:36.047Z,16.45
2019-04-16T10:54:57.722Z,16.32
2019-04-16T10:56:06.151Z,17.87
2019-04-16T10:57:14.592Z,17.97
2019-04-16T10:58:39.263Z,16.80
2019-04-16T10:59:54.987Z,18.07
2019-04-16T11:01:07.506Z,17.20
2019-04-16T11:02:16.649Z,17.17
2019-04-16T11:03:12.117Z,17.47
2019-04-16T11:04:30.916Z,17.03
2019-04-16T11:05:43.061Z,17.77
2019-04-16T11:06:42.140Z,17.87
2019-04-16T11:07:31.811Z,17.60
2019-04-16T11:08:21.946Z,17.03
2019-04-16T11:09:12.386Z,18.00
2019-04-16T11:10:03.148Z,17.70
2019-04-16T11:10:56.617Z,18.63
2019-04-16T11:11:47.124Z,17.90
2019-04-16T11:12:36.643Z,17.20
2019-04-16T11:13:29.772Z,17.77
2019-04-16T11:14:19.622Z,17.80
2019-04-16T11:15:09.343Z,17.27
2019-04-16T11:16:01.754Z,17.03
2019-04-16T11:16:52.071Z,17.90
2019-04-16T11:17:42.773Z,16.67
2019-04-16T11:18:32.969Z,18.17
2019-04-16T11:19:23.248Z,19.13
2019-04-16T11:20:13.220Z,18.63
2019-04-16T11:21:02.970Z,18.43
2019-04-16T11:21:52.837Z,17.40
2019-04-16T11:22:42.460Z,17.90
2019-04-16T11:23:32.372Z,18.20
2019-04-16T11:24:23.239Z,17.00
2019-04-16T11:25:13.249Z,17.43
2019-04-16T11:26:04.210Z,17.00
2019-04-16T11:26:54.787Z,17.33
2019-04-16T11:27:44.783Z,17.93
2019-04-16T11:28:34.769Z,17.53
2019-04-16T11:29:24.360Z,18.07
2019-04-16T11:30:26.909Z,17.73
2019-04-16T11:31:18.768Z,17.93
2019-04-16T11:32:09.553Z,16.50
2019-04-16T11:33:00.175Z,16.40
2019-04-16T11:33:50.330Z,16.90
2019-04-16T11:34:40.489Z,18.87
2019-04-16T11:35:30.659Z,17.60
2019-04-16T11:36:21.066Z,17.33
2019-04-16T11:37:10.761Z,16.63
2019-04-16T11:38:02.106Z,16.70
2019-04-16T11:38:52.077Z,17.13
2019-04-16T11:39:42.005Z,17.67
2019-04-16T11:40:32.072Z,15.63
2019-04-16T11:41:22.003Z,16.80
2019-04-16T11:42:11.731Z,17.97
2019-04-16T11:43:03.493Z,17.03
2019-04-16T11:43:53.738Z,16.47
2019-04-16T11:44:44.214Z,16.83
2019-04-16T11:45:33.683Z,16.70
2019-04-16T11:46:24.265Z,18.00
2019-04-16T11:47:14.592Z,17.80
2019-04-16T11:48:04.947Z,17.13
2019-04-16T11:48:54.429Z,17.50